createdAt,value
2023-03-23T00:03:46.561Z,92498.00
2023-03-23T00:07:47.283Z,92496.00
2023-03-23T00:11:48.005Z,92499.00
2023-03-23T00:15:48.767Z,92498.00
2023-03-23T00:19:49.515Z,92492.00
2023-03-23T00:23:50.237Z,92494.00
2023-03-23T00:27:50.993Z,92490.00
2023-03-23T00:31:51.763Z,92492.00
2023-03-23T00:35:52.530Z,92486.00
2023-03-23T00:39:53.204Z,92484.00
2023-03-23T00:43:53.927Z,92480.00
2023-03-23T00:47:54.641Z,92484.00
2023-03-23T00:51:55.390Z,92488.00
2023-03-23T00:55:56.130Z,92480.00
2023-03-23T00:59:56.942Z,92474.00
2023-03-23T01:03:58.683Z,92476.00
2023-03-23T01:07:58.409Z,92476.00
2023-03-23T01:11:59.145Z,92474.00
2023-03-23T01:15:59.883Z,92468.00
2023-03-23T01:20:00.596Z,92468.00
2023-03-23T01:24:01.310Z,92466.00
2023-03-23T01:28:02.002Z,92466.00
2023-03-23T01:32:02.710Z,92464.00
2023-03-23T01:36:03.475Z,92456.00
2023-03-23T01:40:04.213Z,92454.00
2023-03-23T01:44:04.993Z,92456.00
2023-03-23T01:48:05.740Z,92451.00
2023-03-23T01:52:06.518Z,92452.00
2023-03-23T01:56:07.307Z,92452.00
2023-03-23T02:00:08.080Z,92445.00
2023-03-23T02:04:08.836Z,92449.00
2023-03-23T02:08:09.585Z,92445.00
2023-03-23T02:12:10.391Z,92447.00
2023-03-23T02:16:11.154Z,92449.00
2023-03-23T02:20:11.973Z,92443.00
2023-03-23T02:24:12.780Z,92443.00
2023-03-23T02:28:13.646Z,92443.00
2023-03-23T02:32:14.537Z,92439.00
2023-03-23T02:36:15.395Z,92445.00
2023-03-23T02:40:16.405Z,92441.00
2023-03-23T05:08:50.824Z,92503.00
2023-03-23T05:16:52.706Z,92505.00
2023-03-23T05:20:53.585Z,92507.00
2023-03-23T05:24:54.509Z,92505.00
2023-03-23T05:28:55.433Z,92505.00
2023-03-23T05:32:57.353Z,92509.00
2023-03-23T05:36:57.229Z,92505.00
2023-03-23T05:40:58.098Z,92496.00
2023-03-23T05:44:58.971Z,92490.00
2023-03-23T05:48:59.995Z,92492.00
2023-03-23T05:53:00.959Z,92499.00
2023-03-23T05:57:02.069Z,92513.00
2023-03-23T06:01:03.140Z,92515.00
2023-03-23T06:05:04.183Z,92523.00
2023-03-23T06:09:06.620Z,92517.00
2023-03-23T06:13:06.273Z,92509.00
2023-03-23T06:17:07.322Z,92505.00
2023-03-23T06:21:08.387Z,92503.00
2023-03-23T06:29:09.903Z,92501.00
2023-03-23T06:33:10.719Z,92503.00
2023-03-23T06:37:11.408Z,92501.00
2023-03-23T06:41:12.182Z,92499.00
2023-03-23T06:45:13.062Z,92494.00
2023-03-23T06:49:13.926Z,92501.00
2023-03-23T06:53:14.738Z,92501.00
2023-03-23T06:57:15.575Z,92498.00
2023-03-23T07:01:16.473Z,92496.00
2023-03-23T07:05:17.417Z,92498.00
2023-03-23T07:09:18.360Z,92494.00
2023-03-23T07:13:19.265Z,92507.00
2023-03-23T07:17:20.352Z,92505.00
2023-03-23T07:21:20.991Z,92509.00
2023-03-23T07:25:21.794Z,92509.00
2023-03-23T07:29:22.754Z,92513.00
2023-03-23T07:33:23.590Z,92525.00
2023-03-23T07:37:24.453Z,92527.00
2023-03-23T07:41:25.359Z,92527.00
2023-03-23T07:45:27.196Z,92523.00
2023-03-23T07:49:27.100Z,92517.00
2023-03-23T07:53:27.840Z,92515.00
2023-03-23T07:57:28.544Z,92519.00
2023-03-23T08:01:29.204Z,92527.00
2023-03-23T08:05:29.852Z,92527.00
2023-03-23T08:09:30.551Z,92527.00
2023-03-23T08:13:31.245Z,92527.00
2023-03-23T08:17:31.872Z,92529.00
2023-03-23T08:21:33.573Z,92523.00
2023-03-23T08:25:33.293Z,92517.00
2023-03-23T08:29:34.173Z,92519.00
2023-03-23T08:33:34.864Z,92513.00
2023-03-23T08:37:35.557Z,92515.00
2023-03-23T08:41:36.234Z,92505.00
2023-03-23T08:45:36.846Z,92513.00
2023-03-23T08:49:37.495Z,92513.00
2023-03-23T08:53:38.192Z,92517.00
2023-03-23T08:57:38.880Z,92515.00
2023-03-23T09:01:39.543Z,92515.00
2023-03-23T09:05:40.392Z,92511.00
2023-03-23T09:09:41.633Z,92509.00
2023-03-23T09:13:42.572Z,92509.00
2023-03-23T09:17:42.078Z,92503.00
2023-03-23T09:21:43.201Z,92501.00
2023-03-23T09:25:43.458Z,92499.00
2023-03-23T09:29:43.534Z,92490.00
2023-03-23T09:33:47.162Z,92490.00
2023-03-23T09:37:44.423Z,92490.00
2023-03-23T09:41:44.892Z,92478.00
2023-03-23T09:45:45.386Z,92470.00
2023-03-23T09:53:46.225Z,92464.00
2023-03-23T11:09:54.052Z,92452.00
2023-03-23T11:13:54.385Z,92452.00
2023-03-23T11:17:54.707Z,92441.00
2023-03-23T11:21:55.221Z,92433.00
2023-03-23T11:25:55.731Z,92425.00
2023-03-23T11:29:58.685Z,92419.00
2023-03-23T11:34:05.977Z,92415.00
2023-03-23T11:57:58.412Z,92396.00
2023-03-23T12:05:58.994Z,92390.00
2023-03-23T12:09:59.304Z,92382.00
2023-03-23T12:13:59.679Z,92374.00
2023-03-23T12:18:00.116Z,92370.00
2023-03-23T12:22:00.533Z,92356.00
2023-03-23T12:30:01.266Z,92329.00
2023-03-23T13:02:04.124Z,92268.00
2023-03-23T13:10:05.385Z,92247.00
2023-03-23T13:14:04.859Z,92249.00
2023-03-23T13:26:05.817Z,92227.00
2023-03-23T14:50:11.337Z,92145.00
2023-03-23T15:10:10.823Z,92135.00
2023-03-23T15:14:10.975Z,92143.00
2023-03-23T15:18:11.365Z,92141.00
2023-03-23T15:22:12.401Z,92137.00
2023-03-23T15:26:11.641Z,92141.00
2023-03-23T15:30:11.745Z,92139.00
2023-03-23T15:34:11.892Z,92135.00
2023-03-23T15:38:12.059Z,92135.00
2023-03-23T15:42:12.254Z,92143.00
2023-03-23T15:46:12.435Z,92141.00
2023-03-23T15:50:12.617Z,92143.00
2023-03-23T15:58:13.003Z,92143.00
2023-03-23T16:02:13.305Z,92147.00
2023-03-23T16:06:13.396Z,92151.00
2023-03-23T16:10:14.602Z,92155.00
2023-03-23T16:14:13.792Z,92161.00
2023-03-23T16:18:14.107Z,92161.00
2023-03-23T16:22:15.162Z,92163.00
2023-03-23T16:26:14.762Z,92163.00
2023-03-23T16:30:15.121Z,92170.00
2023-03-23T16:34:15.518Z,92172.00
2023-03-23T16:38:16.370Z,92180.00
2023-03-23T16:42:16.352Z,92180.00
2023-03-23T16:46:16.858Z,92180.00
2023-03-23T16:50:17.241Z,92182.00
2023-03-23T16:54:17.616Z,92184.00
2023-03-23T16:58:18.330Z,92194.00
2023-03-23T17:02:18.563Z,92204.00
2023-03-23T17:06:18.983Z,92206.00
2023-03-23T17:10:19.229Z,92216.00
2023-03-23T17:14:19.449Z,92229.00
2023-03-23T17:18:19.658Z,92223.00
2023-03-23T17:22:19.892Z,92219.00
2023-03-23T17:26:20.135Z,92227.00
2023-03-23T17:30:20.851Z,92227.00
2023-03-23T17:34:20.661Z,92233.00
2023-03-23T17:38:21.351Z,92237.00
2023-03-23T17:42:21.219Z,92237.00
2023-03-23T17:46:21.533Z,92243.00
2023-03-23T17:50:21.857Z,92249.00
2023-03-23T17:54:22.125Z,92255.00
2023-03-23T17:58:22.530Z,92268.00
2023-03-23T18:02:22.877Z,92270.00
2023-03-23T18:06:23.038Z,92274.00
2023-03-23T18:10:23.422Z,92288.00
2023-03-23T18:14:23.761Z,92294.00
2023-03-23T18:18:24.053Z,92302.00
2023-03-23T18:22:24.393Z,92313.00
2023-03-23T18:26:24.750Z,92319.00
2023-03-23T18:30:25.109Z,92333.00
2023-03-23T18:34:25.463Z,92333.00
2023-03-23T18:38:26.001Z,92317.00
2023-03-23T18:42:26.614Z,92333.00
2023-03-23T18:46:27.079Z,92335.00
2023-03-23T18:50:27.682Z,92343.00
2023-03-23T18:54:28.200Z,92347.00
2023-03-23T18:58:28.778Z,92350.00
2023-03-23T19:02:29.461Z,92354.00
2023-03-23T19:06:29.934Z,92360.00
2023-03-23T19:10:30.889Z,92362.00
2023-03-23T19:14:31.184Z,92368.00
2023-03-23T19:18:31.796Z,92374.00
2023-03-23T19:22:32.440Z,92374.00
2023-03-23T19:26:36.695Z,92378.00
2023-03-23T19:30:33.419Z,92380.00
2023-03-23T19:34:33.897Z,92388.00
2023-03-23T19:38:34.275Z,92392.00
2023-03-23T19:42:34.643Z,92397.00
2023-03-23T19:46:35.035Z,92405.00
2023-03-23T19:50:35.409Z,92407.00
2023-03-23T19:54:35.853Z,92405.00
2023-03-23T19:58:36.192Z,92399.00
2023-03-23T20:02:37.264Z,92397.00
2023-03-23T20:06:37.684Z,92392.00
2023-03-23T20:10:37.409Z,92382.00
2023-03-23T20:14:37.802Z,92388.00
2023-03-23T20:18:38.380Z,92390.00
2023-03-23T20:22:38.835Z,92396.00
2023-03-23T20:26:39.180Z,92405.00
2023-03-23T20:30:39.582Z,92403.00
2023-03-23T20:34:40.413Z,92401.00
2023-03-23T20:38:40.435Z,92392.00
2023-03-23T20:42:40.872Z,92390.00
2023-03-23T20:46:41.316Z,92388.00
2023-03-23T20:50:41.764Z,92399.00
2023-03-23T20:54:42.198Z,92405.00
2023-03-23T20:58:42.657Z,92405.00
2023-03-23T21:02:43.164Z,92411.00
2023-03-23T21:06:43.576Z,92413.00
2023-03-23T21:10:45.150Z,92407.00
2023-03-23T21:14:44.531Z,92405.00
2023-03-23T21:18:45.020Z,92401.00
2023-03-23T21:22:45.516Z,92403.00
2023-03-23T21:26:46.014Z,92407.00
2023-03-23T21:30:46.798Z,92407.00
2023-03-23T21:34:47.204Z,92407.00
2023-03-23T21:38:47.888Z,92405.00
2023-03-23T21:42:48.562Z,92405.00
2023-03-23T21:46:49.260Z,92405.00
2023-03-23T21:50:49.882Z,92403.00
2023-03-23T21:54:50.576Z,92403.00
2023-03-23T21:58:51.285Z,92405.00
2023-03-23T22:02:51.997Z,92405.00
2023-03-23T22:06:52.664Z,92401.00
2023-03-23T22:11:01.387Z,92401.00
2023-03-23T22:14:54.813Z,92399.00
2023-03-23T22:18:54.301Z,92397.00
2023-03-23T22:22:54.931Z,92399.00
2023-03-23T22:26:55.619Z,92392.00
2023-03-23T22:30:56.333Z,92392.00
2023-03-23T22:34:57.463Z,92397.00
2023-03-23T22:38:57.760Z,92388.00
2023-03-23T22:42:58.485Z,92394.00
2023-03-23T22:46:59.945Z,92390.00
2023-03-23T22:50:59.987Z,92384.00
2023-03-23T22:55:00.680Z,92378.00
2023-03-23T22:59:01.357Z,92376.00
2023-03-23T23:03:02.123Z,92378.00
2023-03-23T23:07:12.585Z,92374.00
2023-03-23T23:11:03.330Z,92374.00
2023-03-23T23:15:03.835Z,92374.00
2023-03-23T23:19:04.438Z,92374.00
2023-03-23T23:23:05.464Z,92368.00
2023-03-23T23:27:05.943Z,92370.00
2023-03-23T23:31:06.513Z,92372.00
2023-03-23T23:35:07.056Z,92374.00
2023-03-23T23:39:07.560Z,92380.00
2023-03-23T23:43:08.101Z,92374.00
2023-03-23T23:47:08.640Z,92370.00
2023-03-23T23:51:09.466Z,92370.00
2023-03-23T23:55:09.692Z,92364.00
2023-03-23T23:59:10.229Z,92364.00
